< < Back
Terminal Aerodrome Forecast


Current Version              Previous Versions:   1  2  3  4  5  6  7  8  9  

Terminal Aerodrome Forecast

550
FTUS44 KBMX 261127
TAFMGM
TAF
KMGM 261127Z 2612/2712 17005KT P6SM SKC
     FM261600 15006KT P6SM FEW250
     FM270300 17002KT P6SM SKC=

Latest METAR

450
SAUS80 KWBC 261200 RRA
MTRMGM
METAR KMGM 261153Z 00000KT 10SM CLR 22/18 A3016 RMK AO2 SLP211 T02170183
10222 20183 51014


USA.gov is the U.S. government's official web portal to all federal, state and local government web resources and services.